Aérodrome :
LOGIN :

S'inscrire | Disclaimer

   EN    FR    IT 

 










Légende :    VFR   VFR Marginal   IFR   IFR Intensif   IFR Très Intensif
Visi : 
Plafond : 
>= 8 km
>= 3000ft
5 à 8 km
1000 à 3000 ft
1500m à 5 km
500 à 1000 ft
800 à 1500m
200 à 500 ft
< 800m
< 200 ft
Symboles :   Orages  Brouillard  Fortes neiges  Fortes précipitations  Vent > 20 kt
SIGMETs :   Divers  Orages  Givrage  Turbulence  Onde Orograph.  Cendres Volcan.






- Altitude de l'aérodrome : 28 ft
- Code IATA : SOZ


LFKS - Solenzara

DERNIER METAR :
  • 040730Z AUTO VRB02KT CAVOK 21/14 Q1004

METARs EXPIRÉS :
  • 040700Z AUTO VRB02KT CAVOK 21/15 Q1004
  • 040630Z AUTO VRB02KT CAVOK 19/14 Q1004
  • 040600Z AUTO VRB03KT CAVOK 19/13 Q1004
  • 040530Z AUTO 27003KT CAVOK 18/13 Q1004
  • 040500Z AUTO 27003KT CAVOK 18/13 Q1004

TAF TAF LFKS
Valide du 04 à 03h jusqu'au 05 à 03h UTC


040430Z 0403/0503 27004KT CAVOK
BECMG 0409/0411 11015KT
TEMPO 0411/0416 11015G30KT
PROB30
TEMPO 0413/0416 SHRA BKN030TCU
BECMG 0416/0418 27010G20KT



MET'MAP, la Météo Aéronautique d'un coup d'oeil ! - Copyright ORBIFLY Décembre 2007 - Disclaimer

ORBIFLY MET'MAP TEAM :

Programmation & Développement : Alexandra Zaïnal
Sur une idée originale de : Baudouin d'Aumeries
Assistance à la programmation : Marc-Olivier Méhu
Soutien technique & logistique : Manuel Goepfert

Contact : metmap@orbifly.com




SOURCES & CREDITS :

   NOAA